Klamath Falls Airport Klamath Falls US
ICAO: KLMT
IATA: LMT
Category: Medium
Scheduled Services: Yes

Elevation: 4095 ft
TransAlt. 18000 ft.

Airport Communications:
KINGSLEY APP/DEP:123.675
ATIS:126.5
CTAF:118.2
GND:121.9
ANG BASE OPS:38.895
MC MINNVILLE RDO:122.6
KINGSLEY TWR:118.2
UNICOM:122.95

KLMT Zoom In..

Runways:

(A) RW 07 length 5258 ft width 100 ft
---- / hdg 73

(B) RW 14 length 10301 ft width 150 ft
---- / hdg 141

(C) RW 25 length 5258 ft width 100 ft
---- / hdg 253

(D) RW 32 length 10301 ft width 150 ft
ILS 109.50 / hdg 321

Location; KLMT
Day. 20 / Time. 09.53 Zulu
* Altimeter: 30.22
* Temperature: -02° c. -28.4°f.
* Wind from: 000° Speed 00 kn.
Dewpoint: -03° c.
Visibility: 10 Statute Miles.
Clouds: Clear (automated report).

KLMT 200953Z AUTO 00000KT 10SM CLR M02/M03 A3022 RMK AO2 SLP237 T10171033


Wind - Calm.

  YouTube Music Video
 
jpsmedia.com for Web Design  worldairports.se 2018   terms of use